Terminal Aerodrome Forecast
Issued by NWS

Home | Current Version | Previous Version | Text Only | Print | Product List | Glossary On
Versions: 1 2 3 4 5 6 7 8 9 10 11 12
265
FTUS45 KABQ 281135
TAFAEG
TAF
KAEG 281135Z 2812/2912 32004KT P6SM BKN070
     FM282000 23006KT P6SM VCTS BKN070CB
     FM282300 30008KT P6SM VCSH OVC060
     FM290400 33006KT P6SM BKN070=

USA.gov is the U.S. government's official web portal to all federal, state and local government web resources and services.